Portland, Connecticut
Current Conditions -  °F | °C
As of 12:53 AM on Tuesday 21 Oct 2014 (Local Time) from KHFD Reporting Station
Clear Clear  
Wind Chill: 44°   Ceiling: Unl
Heat Index: 47°   Visibility: 10mi
Dew Point: 43°   Wind: 7mph
Humidity: 86%   Direction: 150°SSE
Pressure: 29.98"   Gusts: NA
Location:  41.58°N, 72.64°W
Report Text: KHFD 210453Z AUTO 15006KT 10SM CLR 08/06 A2998 RMK AO2 SLP151 T00830061 401280011 $
Loading
Personal Weather Stations






























Interactive Weather Map
Tropical Storm Tracking
New forecast layout! Learn more

10-Day Weather Forecast

Advertisements
Track Severe Weather on mobile